sensor_id;sensor_type;location;lat;lon;timestamp;P1;durP1;ratioP1;P2;durP2;ratioP2
17420;SDS011;8828;48.800;9.540;2023-05-29T00:00:42;8.83;;;4.40;;
17420;SDS011;8828;48.800;9.540;2023-05-29T00:03:10;8.37;;;4.23;;
17420;SDS011;8828;48.800;9.540;2023-05-29T00:05:39;7.90;;;4.80;;
17420;SDS011;8828;48.800;9.540;2023-05-29T00:08:07;7.03;;;4.00;;
17420;SDS011;8828;48.800;9.540;2023-05-29T00:10:36;8.87;;;4.30;;
17420;SDS011;8828;48.800;9.540;2023-05-29T00:13:04;6.47;;;3.73;;
17420;SDS011;8828;48.800;9.540;2023-05-29T00:15:33;13.17;;;4.00;;
17420;SDS011;8828;48.800;9.540;2023-05-29T00:18:01;5.63;;;3.70;;
17420;SDS011;8828;48.800;9.540;2023-05-29T00:20:29;6.63;;;3.87;;
17420;SDS011;8828;48.800;9.540;2023-05-29T00:23:00;5.43;;;3.47;;
17420;SDS011;8828;48.800;9.540;2023-05-29T00:25:30;7.63;;;3.47;;
17420;SDS011;8828;48.800;9.540;2023-05-29T00:28:00;8.20;;;4.13;;
17420;SDS011;8828;48.800;9.540;2023-05-29T00:30:28;6.27;;;3.57;;
17420;SDS011;8828;48.800;9.540;2023-05-29T00:32:56;6.53;;;4.03;;
17420;SDS011;8828;48.800;9.540;2023-05-29T00:35:23;8.60;;;3.83;;
17420;SDS011;8828;48.800;9.540;2023-05-29T00:37:52;4.77;;;3.50;;
17420;SDS011;8828;48.800;9.540;2023-05-29T00:40:19;5.67;;;3.40;;
17420;SDS011;8828;48.800;9.540;2023-05-29T00:42:48;5.40;;;3.70;;
17420;SDS011;8828;48.800;9.540;2023-05-29T00:45:17;6.00;;;3.80;;
17420;SDS011;8828;48.800;9.540;2023-05-29T00:47:45;7.37;;;3.70;;
17420;SDS011;8828;48.800;9.540;2023-05-29T00:50:14;5.87;;;3.80;;
17420;SDS011;8828;48.800;9.540;2023-05-29T00:52:42;6.57;;;3.70;;
17420;SDS011;8828;48.800;9.540;2023-05-29T00:55:12;7.03;;;4.00;;
17420;SDS011;8828;48.800;9.540;2023-05-29T00:57:41;6.90;;;4.07;;
17420;SDS011;8828;48.800;9.540;2023-05-29T01:00:11;6.80;;;3.53;;
17420;SDS011;8828;48.800;9.540;2023-05-29T01:02:42;6.93;;;3.90;;
17420;SDS011;8828;48.800;9.540;2023-05-29T01:05:11;5.97;;;3.27;;
17420;SDS011;8828;48.800;9.540;2023-05-29T01:07:41;5.43;;;3.33;;
17420;SDS011;8828;48.800;9.540;2023-05-29T01:10:09;8.70;;;3.43;;
17420;SDS011;8828;48.800;9.540;2023-05-29T01:12:38;5.90;;;3.40;;
17420;SDS011;8828;48.800;9.540;2023-05-29T01:15:16;5.43;;;3.40;;
17420;SDS011;8828;48.800;9.540;2023-05-29T01:17:57;5.03;;;3.37;;
17420;SDS011;8828;48.800;9.540;2023-05-29T01:20:35;8.40;;;3.70;;
17420;SDS011;8828;48.800;9.540;2023-05-29T01:23:24;4.30;;;2.97;;
17420;SDS011;8828;48.800;9.540;2023-05-29T01:26:20;6.87;;;3.40;;
17420;SDS011;8828;48.800;9.540;2023-05-29T01:29:00;10.80;;;3.60;;
17420;SDS011;8828;48.800;9.540;2023-05-29T01:31:29;5.77;;;3.17;;
17420;SDS011;8828;48.800;9.540;2023-05-29T01:33:59;4.27;;;2.83;;
17420;SDS011;8828;48.800;9.540;2023-05-29T01:36:27;6.90;;;3.17;;
17420;SDS011;8828;48.800;9.540;2023-05-29T01:38:56;6.07;;;3.30;;
17420;SDS011;8828;48.800;9.540;2023-05-29T01:41:25;5.93;;;3.63;;
17420;SDS011;8828;48.800;9.540;2023-05-29T01:43:56;6.80;;;3.80;;
17420;SDS011;8828;48.800;9.540;2023-05-29T01:46:25;8.07;;;3.17;;
17420;SDS011;8828;48.800;9.540;2023-05-29T01:48:53;6.47;;;3.10;;
17420;SDS011;8828;48.800;9.540;2023-05-29T01:51:22;6.50;;;3.50;;
17420;SDS011;8828;48.800;9.540;2023-05-29T01:53:50;6.47;;;3.27;;
17420;SDS011;8828;48.800;9.540;2023-05-29T01:56:18;8.10;;;3.33;;
17420;SDS011;8828;48.800;9.540;2023-05-29T01:58:47;7.67;;;3.10;;
17420;SDS011;8828;48.800;9.540;2023-05-29T02:01:17;4.80;;;3.03;;
17420;SDS011;8828;48.800;9.540;2023-05-29T02:03:47;8.07;;;3.40;;
17420;SDS011;8828;48.800;9.540;2023-05-29T02:06:15;6.80;;;3.50;;
17420;SDS011;8828;48.800;9.540;2023-05-29T02:08:43;6.43;;;3.53;;
17420;SDS011;8828;48.800;9.540;2023-05-29T02:11:11;5.73;;;2.90;;
17420;SDS011;8828;48.800;9.540;2023-05-29T02:13:39;5.37;;;3.30;;
17420;SDS011;8828;48.800;9.540;2023-05-29T02:16:07;4.87;;;3.20;;
17420;SDS011;8828;48.800;9.540;2023-05-29T02:18:36;5.57;;;2.90;;
17420;SDS011;8828;48.800;9.540;2023-05-29T02:21:05;6.83;;;3.40;;
17420;SDS011;8828;48.800;9.540;2023-05-29T02:23:33;6.67;;;3.00;;
17420;SDS011;8828;48.800;9.540;2023-05-29T02:26:01;5.60;;;2.97;;
17420;SDS011;8828;48.800;9.540;2023-05-29T02:28:29;5.23;;;2.97;;
17420;SDS011;8828;48.800;9.540;2023-05-29T02:30:57;6.57;;;3.10;;
17420;SDS011;8828;48.800;9.540;2023-05-29T02:33:25;6.47;;;3.40;;
17420;SDS011;8828;48.800;9.540;2023-05-29T02:35:54;4.60;;;2.97;;
17420;SDS011;8828;48.800;9.540;2023-05-29T02:38:22;6.57;;;3.03;;
17420;SDS011;8828;48.800;9.540;2023-05-29T02:40:50;4.00;;;2.53;;
17420;SDS011;8828;48.800;9.540;2023-05-29T02:43:21;5.70;;;2.83;;
17420;SDS011;8828;48.800;9.540;2023-05-29T02:45:49;4.83;;;3.07;;
17420;SDS011;8828;48.800;9.540;2023-05-29T02:48:17;6.80;;;3.10;;
17420;SDS011;8828;48.800;9.540;2023-05-29T02:50:45;6.43;;;3.37;;
17420;SDS011;8828;48.800;9.540;2023-05-29T02:53:14;5.67;;;3.07;;
17420;SDS011;8828;48.800;9.540;2023-05-29T02:55:42;5.80;;;3.07;;
17420;SDS011;8828;48.800;9.540;2023-05-29T02:58:10;6.77;;;2.90;;
17420;SDS011;8828;48.800;9.540;2023-05-29T03:00:38;5.33;;;2.73;;
17420;SDS011;8828;48.800;9.540;2023-05-29T03:03:06;6.60;;;3.30;;
17420;SDS011;8828;48.800;9.540;2023-05-29T03:05:34;8.40;;;3.03;;
17420;SDS011;8828;48.800;9.540;2023-05-29T03:08:02;6.37;;;3.03;;
17420;SDS011;8828;48.800;9.540;2023-05-29T03:10:32;7.13;;;2.63;;
17420;SDS011;8828;48.800;9.540;2023-05-29T03:13:00;5.37;;;3.10;;
17420;SDS011;8828;48.800;9.540;2023-05-29T03:15:28;4.90;;;2.90;;
17420;SDS011;8828;48.800;9.540;2023-05-29T03:17:56;5.67;;;3.40;;
17420;SDS011;8828;48.800;9.540;2023-05-29T03:20:24;5.33;;;3.20;;
17420;SDS011;8828;48.800;9.540;2023-05-29T03:22:52;5.43;;;3.23;;
17420;SDS011;8828;48.800;9.540;2023-05-29T03:25:20;7.07;;;3.60;;
17420;SDS011;8828;48.800;9.540;2023-05-29T03:27:50;6.10;;;2.97;;
17420;SDS011;8828;48.800;9.540;2023-05-29T03:30:18;4.73;;;3.30;;
17420;SDS011;8828;48.800;9.540;2023-05-29T03:32:46;5.07;;;3.20;;
17420;SDS011;8828;48.800;9.540;2023-05-29T03:35:14;5.60;;;3.13;;
17420;SDS011;8828;48.800;9.540;2023-05-29T03:37:42;6.60;;;3.60;;
17420;SDS011;8828;48.800;9.540;2023-05-29T03:40:11;7.13;;;3.27;;
17420;SDS011;8828;48.800;9.540;2023-05-29T03:42:39;7.27;;;3.73;;
17420;SDS011;8828;48.800;9.540;2023-05-29T03:45:09;4.80;;;2.70;;
17420;SDS011;8828;48.800;9.540;2023-05-29T03:47:37;6.43;;;3.13;;
17420;SDS011;8828;48.800;9.540;2023-05-29T03:50:06;8.17;;;3.00;;
17420;SDS011;8828;48.800;9.540;2023-05-29T03:52:34;6.07;;;3.37;;
17420;SDS011;8828;48.800;9.540;2023-05-29T03:55:02;9.13;;;3.57;;
17420;SDS011;8828;48.800;9.540;2023-05-29T03:57:30;9.97;;;3.53;;
17420;SDS011;8828;48.800;9.540;2023-05-29T03:59:58;8.87;;;3.53;;
17420;SDS011;8828;48.800;9.540;2023-05-29T04:02:28;5.80;;;3.80;;
17420;SDS011;8828;48.800;9.540;2023-05-29T04:04:56;5.33;;;3.57;;
17420;SDS011;8828;48.800;9.540;2023-05-29T04:07:24;5.87;;;3.60;;
17420;SDS011;8828;48.800;9.540;2023-05-29T04:09:52;5.70;;;3.63;;
17420;SDS011;8828;48.800;9.540;2023-05-29T04:12:20;5.30;;;3.30;;
17420;SDS011;8828;48.800;9.540;2023-05-29T04:14:48;5.60;;;3.13;;
17420;SDS011;8828;48.800;9.540;2023-05-29T04:17:16;6.73;;;3.97;;
17420;SDS011;8828;48.800;9.540;2023-05-29T04:19:45;6.57;;;3.43;;
17420;SDS011;8828;48.800;9.540;2023-05-29T04:22:13;7.27;;;3.60;;
17420;SDS011;8828;48.800;9.540;2023-05-29T04:24:41;5.50;;;3.50;;
17420;SDS011;8828;48.800;9.540;2023-05-29T04:27:09;7.20;;;3.93;;
17420;SDS011;8828;48.800;9.540;2023-05-29T04:29:39;8.67;;;3.80;;
17420;SDS011;8828;48.800;9.540;2023-05-29T04:32:08;7.30;;;3.17;;
17420;SDS011;8828;48.800;9.540;2023-05-29T04:34:37;7.07;;;3.43;;
17420;SDS011;8828;48.800;9.540;2023-05-29T04:37:07;7.20;;;3.67;;
17420;SDS011;8828;48.800;9.540;2023-05-29T04:39:35;8.47;;;3.83;;
17420;SDS011;8828;48.800;9.540;2023-05-29T04:42:03;7.33;;;3.40;;
17420;SDS011;8828;48.800;9.540;2023-05-29T04:44:32;6.23;;;3.40;;
17420;SDS011;8828;48.800;9.540;2023-05-29T04:46:59;9.23;;;3.20;;
17420;SDS011;8828;48.800;9.540;2023-05-29T04:49:29;6.57;;;3.67;;
17420;SDS011;8828;48.800;9.540;2023-05-29T04:51:57;5.20;;;3.27;;
17420;SDS011;8828;48.800;9.540;2023-05-29T04:54:28;5.60;;;3.47;;
17420;SDS011;8828;48.800;9.540;2023-05-29T04:56:56;6.67;;;3.53;;
17420;SDS011;8828;48.800;9.540;2023-05-29T04:59:24;6.60;;;3.77;;
17420;SDS011;8828;48.800;9.540;2023-05-29T05:01:52;5.57;;;3.80;;
17420;SDS011;8828;48.800;9.540;2023-05-29T05:04:20;8.17;;;3.53;;
17420;SDS011;8828;48.800;9.540;2023-05-29T05:06:48;5.83;;;3.70;;
17420;SDS011;8828;48.800;9.540;2023-05-29T05:09:16;8.00;;;3.60;;
17420;SDS011;8828;48.800;9.540;2023-05-29T05:11:45;7.13;;;4.03;;
17420;SDS011;8828;48.800;9.540;2023-05-29T05:14:13;6.07;;;3.60;;
17420;SDS011;8828;48.800;9.540;2023-05-29T05:16:41;6.87;;;3.80;;
17420;SDS011;8828;48.800;9.540;2023-05-29T05:19:09;8.43;;;3.63;;
17420;SDS011;8828;48.800;9.540;2023-05-29T05:21:37;6.60;;;3.63;;
17420;SDS011;8828;48.800;9.540;2023-05-29T05:24:05;7.83;;;4.23;;
17420;SDS011;8828;48.800;9.540;2023-05-29T05:26:33;6.80;;;3.93;;
17420;SDS011;8828;48.800;9.540;2023-05-29T05:29:03;5.80;;;3.37;;
17420;SDS011;8828;48.800;9.540;2023-05-29T05:31:31;7.23;;;3.20;;
17420;SDS011;8828;48.800;9.540;2023-05-29T05:33:59;8.20;;;3.70;;
17420;SDS011;8828;48.800;9.540;2023-05-29T05:36:26;6.33;;;3.57;;
17420;SDS011;8828;48.800;9.540;2023-05-29T05:38:54;4.97;;;3.23;;
17420;SDS011;8828;48.800;9.540;2023-05-29T05:41:40;8.40;;;3.60;;
17420;SDS011;8828;48.800;9.540;2023-05-29T05:44:08;7.03;;;3.30;;
17420;SDS011;8828;48.800;9.540;2023-05-29T05:46:36;4.90;;;3.23;;
17420;SDS011;8828;48.800;9.540;2023-05-29T05:49:04;6.57;;;3.50;;
17420;SDS011;8828;48.800;9.540;2023-05-29T05:51:32;7.93;;;3.10;;
17420;SDS011;8828;48.800;9.540;2023-05-29T05:54:01;7.70;;;3.80;;
17420;SDS011;8828;48.800;9.540;2023-05-29T05:56:29;6.33;;;3.50;;
17420;SDS011;8828;48.800;9.540;2023-05-29T05:58:59;7.30;;;3.77;;
17420;SDS011;8828;48.800;9.540;2023-05-29T06:01:27;7.47;;;3.30;;
17420;SDS011;8828;48.800;9.540;2023-05-29T06:03:55;4.67;;;3.30;;
17420;SDS011;8828;48.800;9.540;2023-05-29T06:06:23;6.80;;;3.53;;
17420;SDS011;8828;48.800;9.540;2023-05-29T06:08:51;7.70;;;3.33;;
17420;SDS011;8828;48.800;9.540;2023-05-29T06:11:19;6.40;;;3.80;;
17420;SDS011;8828;48.800;9.540;2023-05-29T06:13:48;4.93;;;3.00;;
17420;SDS011;8828;48.800;9.540;2023-05-29T06:16:17;5.10;;;3.17;;
17420;SDS011;8828;48.800;9.540;2023-05-29T06:18:45;7.53;;;3.90;;
17420;SDS011;8828;48.800;9.540;2023-05-29T06:21:13;9.13;;;4.07;;
17420;SDS011;8828;48.800;9.540;2023-05-29T06:23:42;5.67;;;3.20;;
17420;SDS011;8828;48.800;9.540;2023-05-29T06:26:10;7.30;;;3.60;;
17420;SDS011;8828;48.800;9.540;2023-05-29T06:28:39;8.00;;;3.40;;
17420;SDS011;8828;48.800;9.540;2023-05-29T06:31:07;8.27;;;3.13;;
17420;SDS011;8828;48.800;9.540;2023-05-29T06:33:37;5.93;;;3.43;;
17420;SDS011;8828;48.800;9.540;2023-05-29T06:36:05;4.23;;;3.07;;
17420;SDS011;8828;48.800;9.540;2023-05-29T06:38:33;6.80;;;3.37;;
17420;SDS011;8828;48.800;9.540;2023-05-29T06:41:01;6.07;;;3.30;;
17420;SDS011;8828;48.800;9.540;2023-05-29T06:43:29;7.40;;;3.57;;
17420;SDS011;8828;48.800;9.540;2023-05-29T06:45:57;5.67;;;3.37;;
17420;SDS011;8828;48.800;9.540;2023-05-29T06:48:25;4.47;;;3.10;;
17420;SDS011;8828;48.800;9.540;2023-05-29T06:50:54;5.70;;;3.03;;
17420;SDS011;8828;48.800;9.540;2023-05-29T06:53:22;6.93;;;3.37;;
17420;SDS011;8828;48.800;9.540;2023-05-29T06:55:50;5.20;;;3.00;;
17420;SDS011;8828;48.800;9.540;2023-05-29T06:58:19;9.17;;;3.30;;
17420;SDS011;8828;48.800;9.540;2023-05-29T07:00:47;8.97;;;3.53;;
17420;SDS011;8828;48.800;9.540;2023-05-29T07:03:15;6.50;;;3.10;;
17420;SDS011;8828;48.800;9.540;2023-05-29T07:05:44;5.50;;;3.37;;
17420;SDS011;8828;48.800;9.540;2023-05-29T07:08:13;5.30;;;3.17;;
17420;SDS011;8828;48.800;9.540;2023-05-29T07:10:42;7.63;;;3.47;;
17420;SDS011;8828;48.800;9.540;2023-05-29T07:13:13;4.90;;;3.23;;
17420;SDS011;8828;48.800;9.540;2023-05-29T07:15:42;6.10;;;2.90;;
17420;SDS011;8828;48.800;9.540;2023-05-29T07:18:10;5.73;;;3.20;;
17420;SDS011;8828;48.800;9.540;2023-05-29T07:20:38;8.03;;;3.37;;
17420;SDS011;8828;48.800;9.540;2023-05-29T07:23:06;4.87;;;2.97;;
17420;SDS011;8828;48.800;9.540;2023-05-29T07:25:36;5.07;;;3.20;;
17420;SDS011;8828;48.800;9.540;2023-05-29T07:28:04;4.67;;;3.07;;
17420;SDS011;8828;48.800;9.540;2023-05-29T07:30:47;5.83;;;3.30;;
17420;SDS011;8828;48.800;9.540;2023-05-29T07:33:15;7.53;;;3.50;;
17420;SDS011;8828;48.800;9.540;2023-05-29T07:35:43;9.17;;;2.83;;
17420;SDS011;8828;48.800;9.540;2023-05-29T07:38:11;6.87;;;3.13;;
17420;SDS011;8828;48.800;9.540;2023-05-29T07:40:40;5.07;;;2.63;;
17420;SDS011;8828;48.800;9.540;2023-05-29T07:43:08;6.60;;;3.20;;
17420;SDS011;8828;48.800;9.540;2023-05-29T07:45:36;8.50;;;2.90;;
17420;SDS011;8828;48.800;9.540;2023-05-29T07:48:04;5.53;;;2.97;;
17420;SDS011;8828;48.800;9.540;2023-05-29T07:50:32;5.90;;;3.27;;
17420;SDS011;8828;48.800;9.540;2023-05-29T07:53:01;6.67;;;3.10;;
17420;SDS011;8828;48.800;9.540;2023-05-29T07:55:29;5.77;;;2.80;;
17420;SDS011;8828;48.800;9.540;2023-05-29T07:57:58;5.47;;;3.33;;
17420;SDS011;8828;48.800;9.540;2023-05-29T08:00:26;5.43;;;3.43;;
17420;SDS011;8828;48.800;9.540;2023-05-29T08:02:54;6.73;;;3.83;;
17420;SDS011;8828;48.800;9.540;2023-05-29T08:05:23;11.03;;;3.17;;
17420;SDS011;8828;48.800;9.540;2023-05-29T08:07:51;5.20;;;2.77;;
17420;SDS011;8828;48.800;9.540;2023-05-29T08:10:19;6.67;;;3.07;;
17420;SDS011;8828;48.800;9.540;2023-05-29T08:12:47;7.77;;;3.20;;
17420;SDS011;8828;48.800;9.540;2023-05-29T08:15:18;7.03;;;3.50;;
17420;SDS011;8828;48.800;9.540;2023-05-29T08:17:46;6.27;;;2.93;;
17420;SDS011;8828;48.800;9.540;2023-05-29T08:20:14;6.60;;;3.50;;
17420;SDS011;8828;48.800;9.540;2023-05-29T08:22:42;6.57;;;2.93;;
17420;SDS011;8828;48.800;9.540;2023-05-29T08:25:11;7.43;;;4.23;;
17420;SDS011;8828;48.800;9.540;2023-05-29T08:27:39;6.13;;;3.43;;
17420;SDS011;8828;48.800;9.540;2023-05-29T08:30:07;5.47;;;3.23;;
17420;SDS011;8828;48.800;9.540;2023-05-29T08:32:37;6.43;;;3.17;;
17420;SDS011;8828;48.800;9.540;2023-05-29T08:35:05;5.00;;;3.53;;
17420;SDS011;8828;48.800;9.540;2023-05-29T08:37:34;5.43;;;3.63;;
17420;SDS011;8828;48.800;9.540;2023-05-29T08:40:03;7.13;;;3.80;;
17420;SDS011;8828;48.800;9.540;2023-05-29T08:42:36;6.80;;;3.17;;
17420;SDS011;8828;48.800;9.540;2023-05-29T08:45:07;7.10;;;3.50;;
17420;SDS011;8828;48.800;9.540;2023-05-29T08:47:42;6.97;;;4.07;;
17420;SDS011;8828;48.800;9.540;2023-05-29T08:50:12;5.33;;;2.77;;
17420;SDS011;8828;48.800;9.540;2023-05-29T08:52:42;6.30;;;3.00;;
17420;SDS011;8828;48.800;9.540;2023-05-29T08:55:11;5.50;;;3.03;;
17420;SDS011;8828;48.800;9.540;2023-05-29T08:57:39;5.23;;;3.10;;
17420;SDS011;8828;48.800;9.540;2023-05-29T09:00:10;9.33;;;2.90;;
17420;SDS011;8828;48.800;9.540;2023-05-29T09:02:39;4.40;;;2.60;;
17420;SDS011;8828;48.800;9.540;2023-05-29T09:05:10;7.00;;;3.13;;
17420;SDS011;8828;48.800;9.540;2023-05-29T09:07:38;5.53;;;2.80;;
17420;SDS011;8828;48.800;9.540;2023-05-29T09:10:07;11.20;;;2.70;;
17420;SDS011;8828;48.800;9.540;2023-05-29T09:12:36;6.60;;;2.83;;
17420;SDS011;8828;48.800;9.540;2023-05-29T09:15:08;4.77;;;2.50;;
17420;SDS011;8828;48.800;9.540;2023-05-29T09:17:47;7.00;;;2.63;;
17420;SDS011;8828;48.800;9.540;2023-05-29T09:20:18;4.27;;;2.50;;
17420;SDS011;8828;48.800;9.540;2023-05-29T09:22:52;6.03;;;2.70;;
17420;SDS011;8828;48.800;9.540;2023-05-29T09:25:22;5.77;;;2.60;;
17420;SDS011;8828;48.800;9.540;2023-05-29T09:27:51;5.23;;;2.67;;
17420;SDS011;8828;48.800;9.540;2023-05-29T09:30:31;5.77;;;3.10;;
17420;SDS011;8828;48.800;9.540;2023-05-29T09:33:02;6.43;;;2.90;;
17420;SDS011;8828;48.800;9.540;2023-05-29T09:35:32;5.93;;;2.37;;
17420;SDS011;8828;48.800;9.540;2023-05-29T09:38:01;6.97;;;2.67;;
17420;SDS011;8828;48.800;9.540;2023-05-29T09:40:29;4.63;;;2.60;;
17420;SDS011;8828;48.800;9.540;2023-05-29T09:43:04;5.63;;;2.93;;
17420;SDS011;8828;48.800;9.540;2023-05-29T09:45:37;6.23;;;2.70;;
17420;SDS011;8828;48.800;9.540;2023-05-29T09:48:08;4.60;;;2.63;;
17420;SDS011;8828;48.800;9.540;2023-05-29T09:50:40;6.73;;;2.50;;
17420;SDS011;8828;48.800;9.540;2023-05-29T09:53:17;6.27;;;2.80;;
17420;SDS011;8828;48.800;9.540;2023-05-29T09:55:46;6.23;;;2.87;;
17420;SDS011;8828;48.800;9.540;2023-05-29T09:58:14;7.17;;;3.10;;
17420;SDS011;8828;48.800;9.540;2023-05-29T10:00:44;4.07;;;2.50;;
17420;SDS011;8828;48.800;9.540;2023-05-29T10:03:15;6.63;;;2.93;;
17420;SDS011;8828;48.800;9.540;2023-05-29T10:05:46;5.23;;;2.70;;
17420;SDS011;8828;48.800;9.540;2023-05-29T10:08:17;4.77;;;2.47;;
17420;SDS011;8828;48.800;9.540;2023-05-29T10:10:48;6.87;;;2.60;;
17420;SDS011;8828;48.800;9.540;2023-05-29T10:13:21;4.50;;;2.60;;
17420;SDS011;8828;48.800;9.540;2023-05-29T10:15:52;4.50;;;2.23;;
17420;SDS011;8828;48.800;9.540;2023-05-29T10:18:24;5.33;;;2.70;;
17420;SDS011;8828;48.800;9.540;2023-05-29T10:20:55;4.60;;;2.70;;
17420;SDS011;8828;48.800;9.540;2023-05-29T10:23:25;7.03;;;2.70;;
17420;SDS011;8828;48.800;9.540;2023-05-29T10:25:55;4.97;;;2.50;;
17420;SDS011;8828;48.800;9.540;2023-05-29T10:28:28;4.10;;;2.37;;
17420;SDS011;8828;48.800;9.540;2023-05-29T10:31:00;5.33;;;2.27;;
17420;SDS011;8828;48.800;9.540;2023-05-29T10:33:44;4.80;;;2.57;;
17420;SDS011;8828;48.800;9.540;2023-05-29T10:36:23;5.07;;;2.60;;
17420;SDS011;8828;48.800;9.540;2023-05-29T10:38:56;4.50;;;2.53;;
17420;SDS011;8828;48.800;9.540;2023-05-29T10:41:31;4.50;;;2.67;;
17420;SDS011;8828;48.800;9.540;2023-05-29T10:44:00;3.50;;;2.17;;
17420;SDS011;8828;48.800;9.540;2023-05-29T10:49:33;4.07;;;2.47;;
17420;SDS011;8828;48.800;9.540;2023-05-29T10:52:03;4.30;;;2.60;;
17420;SDS011;8828;48.800;9.540;2023-05-29T10:54:49;4.20;;;2.40;;
17420;SDS011;8828;48.800;9.540;2023-05-29T10:57:20;3.97;;;2.37;;
17420;SDS011;8828;48.800;9.540;2023-05-29T10:59:59;5.47;;;2.50;;
17420;SDS011;8828;48.800;9.540;2023-05-29T11:02:36;6.13;;;2.40;;
17420;SDS011;8828;48.800;9.540;2023-05-29T11:05:07;5.07;;;2.47;;
17420;SDS011;8828;48.800;9.540;2023-05-29T11:07:50;4.73;;;2.40;;
17420;SDS011;8828;48.800;9.540;2023-05-29T11:10:42;4.63;;;2.30;;
17420;SDS011;8828;48.800;9.540;2023-05-29T11:13:11;3.70;;;2.50;;
17420;SDS011;8828;48.800;9.540;2023-05-29T11:19:06;4.10;;;2.33;;
17420;SDS011;8828;48.800;9.540;2023-05-29T11:21:53;2.90;;;2.00;;
17420;SDS011;8828;48.800;9.540;2023-05-29T11:24:27;5.13;;;2.30;;
17420;SDS011;8828;48.800;9.540;2023-05-29T11:26:56;2.80;;;1.90;;
17420;SDS011;8828;48.800;9.540;2023-05-29T11:29:30;3.40;;;2.17;;
17420;SDS011;8828;48.800;9.540;2023-05-29T11:32:00;7.67;;;2.43;;
17420;SDS011;8828;48.800;9.540;2023-05-29T11:34:30;3.50;;;2.53;;
17420;SDS011;8828;48.800;9.540;2023-05-29T11:37:01;3.63;;;1.90;;
17420;SDS011;8828;48.800;9.540;2023-05-29T11:39:30;5.40;;;2.27;;
17420;SDS011;8828;48.800;9.540;2023-05-29T11:41:59;5.10;;;2.30;;
17420;SDS011;8828;48.800;9.540;2023-05-29T11:44:28;5.43;;;2.30;;
17420;SDS011;8828;48.800;9.540;2023-05-29T11:47:00;5.20;;;2.27;;
17420;SDS011;8828;48.800;9.540;2023-05-29T11:49:29;3.83;;;2.30;;
17420;SDS011;8828;48.800;9.540;2023-05-29T11:52:09;4.80;;;2.13;;
17420;SDS011;8828;48.800;9.540;2023-05-29T11:54:41;3.30;;;2.40;;
17420;SDS011;8828;48.800;9.540;2023-05-29T11:57:17;4.87;;;2.57;;
17420;SDS011;8828;48.800;9.540;2023-05-29T11:59:45;2.57;;;1.97;;
17420;SDS011;8828;48.800;9.540;2023-05-29T12:02:13;4.00;;;2.30;;
17420;SDS011;8828;48.800;9.540;2023-05-29T12:04:41;5.27;;;2.27;;
17420;SDS011;8828;48.800;9.540;2023-05-29T12:07:20;3.73;;;2.00;;
17420;SDS011;8828;48.800;9.540;2023-05-29T12:09:48;5.00;;;2.33;;
17420;SDS011;8828;48.800;9.540;2023-05-29T12:12:19;5.90;;;2.50;;
17420;SDS011;8828;48.800;9.540;2023-05-29T12:14:49;6.37;;;2.50;;
17420;SDS011;8828;48.800;9.540;2023-05-29T12:17:18;3.80;;;2.40;;
17420;SDS011;8828;48.800;9.540;2023-05-29T12:19:47;4.23;;;2.30;;
17420;SDS011;8828;48.800;9.540;2023-05-29T12:22:15;3.70;;;2.20;;
17420;SDS011;8828;48.800;9.540;2023-05-29T12:24:44;4.03;;;2.37;;
17420;SDS011;8828;48.800;9.540;2023-05-29T12:27:12;4.90;;;2.30;;
17420;SDS011;8828;48.800;9.540;2023-05-29T12:29:41;6.23;;;2.50;;
17420;SDS011;8828;48.800;9.540;2023-05-29T12:32:09;4.53;;;2.87;;
17420;SDS011;8828;48.800;9.540;2023-05-29T12:34:38;2.87;;;2.00;;
17420;SDS011;8828;48.800;9.540;2023-05-29T12:37:08;5.73;;;2.20;;
17420;SDS011;8828;48.800;9.540;2023-05-29T12:39:40;5.73;;;2.53;;
17420;SDS011;8828;48.800;9.540;2023-05-29T12:42:09;5.60;;;2.20;;
17420;SDS011;8828;48.800;9.540;2023-05-29T12:44:40;3.83;;;2.13;;
17420;SDS011;8828;48.800;9.540;2023-05-29T12:47:09;5.67;;;2.73;;
17420;SDS011;8828;48.800;9.540;2023-05-29T12:49:40;5.60;;;2.63;;
17420;SDS011;8828;48.800;9.540;2023-05-29T12:52:08;6.13;;;2.30;;
17420;SDS011;8828;48.800;9.540;2023-05-29T12:54:38;4.83;;;2.33;;
17420;SDS011;8828;48.800;9.540;2023-05-29T12:57:06;4.00;;;2.30;;
17420;SDS011;8828;48.800;9.540;2023-05-29T12:59:36;3.10;;;2.03;;
17420;SDS011;8828;48.800;9.540;2023-05-29T13:02:04;3.67;;;2.20;;
17420;SDS011;8828;48.800;9.540;2023-05-29T13:04:34;8.33;;;2.57;;
17420;SDS011;8828;48.800;9.540;2023-05-29T13:07:02;4.40;;;2.60;;
17420;SDS011;8828;48.800;9.540;2023-05-29T13:09:30;4.63;;;2.57;;
17420;SDS011;8828;48.800;9.540;2023-05-29T13:11:58;4.03;;;2.40;;
17420;SDS011;8828;48.800;9.540;2023-05-29T13:14:27;4.67;;;2.50;;
17420;SDS011;8828;48.800;9.540;2023-05-29T13:16:57;3.20;;;2.30;;
17420;SDS011;8828;48.800;9.540;2023-05-29T13:19:24;3.33;;;2.20;;
17420;SDS011;8828;48.800;9.540;2023-05-29T13:21:52;7.53;;;2.30;;
17420;SDS011;8828;48.800;9.540;2023-05-29T13:24:20;3.07;;;2.27;;
17420;SDS011;8828;48.800;9.540;2023-05-29T13:26:48;6.93;;;2.40;;
17420;SDS011;8828;48.800;9.540;2023-05-29T13:29:17;7.20;;;2.23;;
17420;SDS011;8828;48.800;9.540;2023-05-29T13:31:45;6.37;;;2.67;;
17420;SDS011;8828;48.800;9.540;2023-05-29T13:34:15;4.13;;;2.20;;
17420;SDS011;8828;48.800;9.540;2023-05-29T13:36:43;2.93;;;2.27;;
17420;SDS011;8828;48.800;9.540;2023-05-29T13:39:11;4.53;;;2.60;;
17420;SDS011;8828;48.800;9.540;2023-05-29T13:41:39;5.97;;;2.70;;
17420;SDS011;8828;48.800;9.540;2023-05-29T13:44:07;5.03;;;2.50;;
17420;SDS011;8828;48.800;9.540;2023-05-29T13:46:35;5.57;;;2.37;;
17420;SDS011;8828;48.800;9.540;2023-05-29T13:49:05;6.13;;;2.60;;
17420;SDS011;8828;48.800;9.540;2023-05-29T13:51:35;3.87;;;2.20;;
17420;SDS011;8828;48.800;9.540;2023-05-29T13:54:03;4.47;;;2.17;;
17420;SDS011;8828;48.800;9.540;2023-05-29T13:56:31;3.97;;;2.17;;
17420;SDS011;8828;48.800;9.540;2023-05-29T13:58:59;4.27;;;2.70;;
17420;SDS011;8828;48.800;9.540;2023-05-29T14:04:20;4.70;;;2.63;;
17420;SDS011;8828;48.800;9.540;2023-05-29T14:06:50;4.97;;;2.30;;
17420;SDS011;8828;48.800;9.540;2023-05-29T14:09:18;6.03;;;2.70;;
17420;SDS011;8828;48.800;9.540;2023-05-29T14:11:52;4.23;;;2.23;;
17420;SDS011;8828;48.800;9.540;2023-05-29T14:14:21;4.43;;;2.30;;
17420;SDS011;8828;48.800;9.540;2023-05-29T14:16:49;4.33;;;2.37;;
17420;SDS011;8828;48.800;9.540;2023-05-29T14:19:18;5.33;;;2.30;;
17420;SDS011;8828;48.800;9.540;2023-05-29T14:21:46;4.80;;;2.63;;
17420;SDS011;8828;48.800;9.540;2023-05-29T14:24:16;3.37;;;2.20;;
17420;SDS011;8828;48.800;9.540;2023-05-29T14:26:44;4.30;;;2.30;;
17420;SDS011;8828;48.800;9.540;2023-05-29T14:29:13;6.03;;;2.33;;
17420;SDS011;8828;48.800;9.540;2023-05-29T14:31:42;4.20;;;2.50;;
17420;SDS011;8828;48.800;9.540;2023-05-29T14:34:11;5.03;;;2.63;;
17420;SDS011;8828;48.800;9.540;2023-05-29T14:36:39;4.53;;;3.00;;
17420;SDS011;8828;48.800;9.540;2023-05-29T14:39:10;4.97;;;2.17;;
17420;SDS011;8828;48.800;9.540;2023-05-29T14:41:40;5.03;;;2.57;;
17420;SDS011;8828;48.800;9.540;2023-05-29T14:44:08;4.27;;;2.33;;
17420;SDS011;8828;48.800;9.540;2023-05-29T14:46:38;4.03;;;2.40;;
17420;SDS011;8828;48.800;9.540;2023-05-29T14:49:06;8.20;;;2.87;;
17420;SDS011;8828;48.800;9.540;2023-05-29T14:51:34;4.30;;;2.50;;
17420;SDS011;8828;48.800;9.540;2023-05-29T14:54:03;4.30;;;2.30;;
17420;SDS011;8828;48.800;9.540;2023-05-29T14:56:31;3.97;;;2.10;;
17420;SDS011;8828;48.800;9.540;2023-05-29T14:59:00;4.40;;;2.77;;
17420;SDS011;8828;48.800;9.540;2023-05-29T15:01:28;6.97;;;2.30;;
17420;SDS011;8828;48.800;9.540;2023-05-29T15:03:56;2.90;;;2.03;;
17420;SDS011;8828;48.800;9.540;2023-05-29T15:06:27;4.00;;;2.27;;
17420;SDS011;8828;48.800;9.540;2023-05-29T15:08:55;3.53;;;2.00;;
17420;SDS011;8828;48.800;9.540;2023-05-29T15:11:24;4.57;;;2.43;;
17420;SDS011;8828;48.800;9.540;2023-05-29T15:13:52;5.40;;;2.20;;
17420;SDS011;8828;48.800;9.540;2023-05-29T15:16:21;4.67;;;2.40;;
17420;SDS011;8828;48.800;9.540;2023-05-29T15:18:49;4.70;;;2.50;;
17420;SDS011;8828;48.800;9.540;2023-05-29T15:21:17;4.90;;;2.53;;
17420;SDS011;8828;48.800;9.540;2023-05-29T15:23:45;4.13;;;2.30;;